»·PEaware :: N292MC KRYN-KSAD

N292MC :: KRYN-KSAD

FLIGHT INFORMATION

Flight Status: Arrived
Operator: Privately registered:
United States
More flights under this callsign
Pilot: Maurice C. (12314)
Aircraft: Unknown
(KODI)
More flights by this aircraft type
Origin: KRYN Ryan
United States
Destination: KSAD Safford Regl
United States
More flights between these airports :: More routes between these airports
Route: TORTS ITEMM
File this flight plan on PilotEdge
Remarks: ALPHABET CHALLENGE
Altitude:
(Current/Filed)
9,500ft
Speed:
(Current/Filed)
180kts
Departed: 14-Oct-20 01:06 PM
Arrived: 14-Oct-20 01:41 PM
Distance/Time
Traveled:
89nm/0:35
Distance/Time
To Go:
Arrived

Flight Plot

Page will automatically refresh every two minutes.

Flight plan parsing failed; only flown route is shown


Map Options




Map Legend


Flown Route
Filed Route
Departure Airport
Arrival Airport
Navaid (VOR, NDB)
Fix

Horizontal Profiles

Position Reports

Time Latitude Longitude Heading Altitude Ground
Speed
14-Oct-20 12:51 32.136417 -111.175078 257 2419ft 0kts
14-Oct-20 12:52 32.136417 -111.175078 257 2419ft 0kts
14-Oct-20 12:53 32.136417 -111.175078 257 2419ft 0kts
14-Oct-20 12:54 32.136417 -111.175078 257 2419ft 0kts
14-Oct-20 12:55 32.136417 -111.175078 257 2419ft 0kts
14-Oct-20 12:56 32.136417 -111.175078 257 2419ft 0kts
14-Oct-20 12:57 32.136417 -111.175078 257 2419ft 0kts
14-Oct-20 12:58 32.136417 -111.175078 257 2419ft 0kts
14-Oct-20 12:59 32.136417 -111.175078 257 2419ft 0kts
14-Oct-20 13:00 32.136417 -111.175078 257 2419ft 0kts
14-Oct-20 13:01 32.136416 -111.175088 258 2419ft 0kts
14-Oct-20 13:02 32.136412 -111.175115 260 2419ft 2kts
14-Oct-20 13:03 32.136076 -111.176496 227 2419ft 0kts
14-Oct-20 13:03 32.135055 -111.176502 181 2422ft 7kts
14-Oct-20 13:05 32.135141 -111.177824 349 2421ft 20kts
14-Oct-20 13:05 32.155554 -111.182568 342 2974ft 133kts
14-Oct-20 13:06 32.196796 -111.187802 356 3955ft 159kts
14-Oct-20 13:07 32.241708 -111.186294 8 4864ft 164kts
14-Oct-20 13:08 32.286540 -111.176213 8 5770ft 164kts
14-Oct-20 13:09 32.331557 -111.167377 7 6651ft 163kts
14-Oct-20 13:10 32.374515 -111.158964 7 7519ft 157kts
14-Oct-20 13:11 32.411807 -111.144850 47 8017ft 139kts
14-Oct-20 13:12 32.426537 -111.101320 67 8685ft 156kts
14-Oct-20 13:13 32.442581 -111.050026 67 9362ft 172kts
14-Oct-20 13:14 32.460190 -110.994278 68 9515ft 189kts
14-Oct-20 13:15 32.478746 -110.935153 68 9518ft 192kts
14-Oct-20 13:16 32.497445 -110.875800 68 9529ft 192kts
14-Oct-20 13:17 32.516033 -110.816523 68 9524ft 192kts
14-Oct-20 13:18 32.534725 -110.756949 68 9522ft 193kts
14-Oct-20 13:19 32.553415 -110.697174 67 9522ft 193kts
14-Oct-20 13:20 32.572051 -110.637538 68 9531ft 192kts
14-Oct-20 13:21 32.590466 -110.578023 69 9527ft 192kts
14-Oct-20 13:22 32.607370 -110.517718 69 9521ft 192kts
14-Oct-20 13:23 32.624431 -110.457489 70 9518ft 192kts
14-Oct-20 13:24 32.641498 -110.397142 69 9516ft 192kts
14-Oct-20 13:25 32.658473 -110.336888 70 9551ft 190kts
14-Oct-20 13:26 32.679693 -110.279507 58 9565ft 191kts
14-Oct-20 13:27 32.708493 -110.227037 54 9559ft 190kts
14-Oct-20 13:28 32.737523 -110.175251 52 9553ft 190kts
14-Oct-20 13:29 32.768677 -110.124672 60 9551ft 191kts
14-Oct-20 13:30 32.792061 -110.065846 64 9130ft 200kts
14-Oct-20 13:31 32.806096 -110.001287 77 8607ft 202kts
14-Oct-20 13:32 32.816090 -109.935108 80 8074ft 204kts
14-Oct-20 13:33 32.825482 -109.868479 80 7511ft 205kts
14-Oct-20 13:34 32.835000 -109.801357 80 6840ft 207kts
14-Oct-20 13:35 32.843974 -109.739890 78 5828ft 142kts
14-Oct-20 13:36 32.849705 -109.699668 81 4795ft 110kts
14-Oct-20 13:37 32.835940 -109.666899 122 4628ft 134kts
14-Oct-20 13:38 32.820635 -109.631163 65 4400ft 113kts
14-Oct-20 13:39 32.838708 -109.618626 312 3415ft 67kts
14-Oct-20 13:40 32.849180 -109.631062 295 3172ft 7kts
14-Oct-20 13:41 32.851154 -109.634333 317 3170ft 12kts
14-Oct-20 13:42 32.851677 -109.636149 43 3169ft 0kts
14-Oct-20 13:43 32.851677 -109.636149 43 3169ft 0kts
14-Oct-20 13:44 32.851677 -109.636149 43 3169ft 0kts
14-Oct-20 13:45 32.851677 -109.636149 43 3169ft 0kts
14-Oct-20 13:46 32.851677 -109.636149 43 3169ft 0kts
14-Oct-20 13:47 32.851677 -109.636149 43 3169ft 0kts
14-Oct-20 13:48 32.851677 -109.636149 43 3169ft 0kts
14-Oct-20 13:49 32.851677 -109.636149 43 3169ft 0kts
14-Oct-20 13:50 32.851677 -109.636149 43 3169ft 0kts

Navigation Log

Ident Type
Flight plan parsing failed, navigation log unavailable